Glencove, Washington
Current Conditions -  °F | °C
As of 5:53 AM on Tuesday 27 Jan 2015 (Local Time) from KTIW Reporting Station
Overcast Overcast  
Wind Chill: 47°   Ceiling: 2100
Heat Index: 49°   Visibility: 10mi
Dew Point: 46°   Wind: 6mph
Humidity: 90%   Direction: 180°S
Pressure: 30.01"   Gusts: NA
Location:  47.2986°N, 122.616°W
Report Text: KTIW 271353Z AUTO 18005KT 10SM OVC021 09/08 A3001 RMK AO2 SLP164 T00940078
Loading
Personal Weather Stations






























Interactive Weather Map New forecast layout! Learn more

10-Day Weather Forecast

Advertisements
Track Severe Weather on mobile